Acworth, Georgia
Current Conditions -  °F | °C
As of 9:50 PM on Friday 19 Dec 2014 (Local Time) from KRYY Reporting Station
Broken Clouds Broken Clouds  
Wind Chill:   Ceiling: 8000
Heat Index:   Visibility: 10mi
Dew Point: -2°   Wind: 5mph
Humidity: 57%   Direction: 290°WNW
Pressure: 30.19"   Gusts: NA
Location:  34.06°N, 84.68°W
Report Text: KRYY 200250Z 29004KT 10SM BKN080 06/M02 A3019
Loading
Personal Weather Stations






























Interactive Weather Map New forecast layout! Learn more

10-Day Weather Forecast

Advertisements
Track Severe Weather on mobile